createdAt,value
2023-02-05T00:02:39.794Z,3.60
2023-02-05T00:05:44.770Z,2.77
2023-02-05T00:08:48.420Z,3.27
2023-02-05T00:11:52.318Z,3.53
2023-02-05T00:14:55.962Z,3.77
2023-02-05T00:17:59.564Z,3.03
2023-02-05T00:21:05.038Z,4.07
2023-02-05T00:24:09.028Z,3.43
2023-02-05T00:27:12.561Z,3.27
2023-02-05T00:30:16.258Z,3.43
2023-02-05T00:33:19.825Z,3.10
2023-02-05T00:36:25.122Z,3.77
2023-02-05T00:39:28.774Z,3.20
2023-02-05T00:42:32.361Z,3.20
2023-02-05T00:45:36.302Z,2.80
2023-02-05T00:48:41.773Z,3.03
2023-02-05T00:51:46.733Z,2.93
2023-02-05T00:54:50.327Z,3.23
2023-02-05T00:57:54.085Z,2.60
2023-02-05T01:00:59.456Z,3.20
2023-02-05T01:04:03.016Z,3.30
2023-02-05T01:07:08.013Z,3.23
2023-02-05T01:10:11.957Z,2.77
2023-02-05T01:13:18.085Z,2.57
2023-02-05T01:16:21.896Z,2.97
2023-02-05T01:19:25.514Z,2.67
2023-02-05T01:22:30.646Z,2.40
2023-02-05T01:25:34.649Z,2.80
2023-02-05T01:28:38.426Z,2.77
2023-02-05T01:31:42.092Z,2.40
2023-02-05T01:34:46.547Z,2.93
2023-02-05T01:37:51.633Z,2.67
2023-02-05T01:40:55.230Z,2.50
2023-02-05T01:44:11.477Z,2.50
2023-02-05T01:47:15.104Z,2.60
2023-02-05T01:50:23.072Z,2.33
2023-02-05T01:53:33.693Z,3.20
2023-02-05T01:56:43.959Z,2.60
2023-02-05T01:59:50.138Z,2.77
2023-02-05T02:02:54.725Z,3.30
2023-02-05T02:05:58.355Z,2.63
2023-02-05T02:09:05.814Z,2.57
2023-02-05T02:12:11.605Z,2.90
2023-02-05T02:15:19.456Z,2.90
2023-02-05T02:18:27.727Z,3.07
2023-02-05T02:21:58.257Z,2.87
2023-02-05T02:25:50.163Z,2.60
2023-02-05T02:29:02.953Z,2.73
2023-02-05T02:32:20.075Z,3.00
2023-02-05T02:35:32.257Z,2.70
2023-02-05T02:38:42.557Z,3.03
2023-02-05T02:41:54.050Z,3.03
2023-02-05T02:45:02.817Z,2.83
2023-02-05T02:48:09.149Z,3.37
2023-02-05T02:51:16.672Z,2.67
2023-02-05T02:54:25.614Z,3.57
2023-02-05T02:57:30.980Z,3.00
2023-02-05T03:00:39.118Z,2.70
2023-02-05T03:03:52.389Z,3.10
2023-02-05T03:07:03.168Z,3.13
2023-02-05T03:10:15.698Z,2.87
2023-02-05T03:13:20.014Z,3.33
2023-02-05T03:16:28.050Z,3.30
2023-02-05T03:19:32.142Z,3.13
2023-02-05T03:22:35.751Z,3.87
2023-02-05T03:25:39.432Z,3.37
2023-02-05T03:28:43.053Z,3.67
2023-02-05T03:32:02.823Z,3.67
2023-02-05T03:35:34.066Z,3.60
2023-02-05T03:39:01.728Z,4.03
2023-02-05T03:42:19.229Z,3.83
2023-02-05T03:45:38.721Z,4.30
2023-02-05T03:49:02.265Z,4.33
2023-02-05T03:52:13.616Z,4.70
2023-02-05T03:55:23.569Z,3.93
2023-02-05T03:58:33.100Z,4.33
2023-02-05T04:01:37.489Z,4.13
2023-02-05T04:04:42.789Z,3.87
2023-02-05T04:07:46.391Z,4.07
2023-02-05T04:10:49.939Z,3.83
2023-02-05T04:13:53.469Z,4.27
2023-02-05T04:16:57.118Z,4.10
2023-02-05T04:20:02.142Z,4.17
2023-02-05T04:23:05.788Z,3.50
2023-02-05T04:26:09.432Z,3.63
2023-02-05T04:29:13.161Z,4.30
2023-02-05T04:32:16.807Z,3.97
2023-02-05T04:35:21.848Z,3.90
2023-02-05T04:38:25.496Z,4.47
2023-02-05T04:41:29.189Z,4.30
2023-02-05T04:44:32.831Z,4.30
2023-02-05T04:47:36.951Z,4.60
2023-02-05T04:50:42.176Z,4.83
2023-02-05T04:53:45.882Z,4.23
2023-02-05T04:56:49.533Z,4.20
2023-02-05T04:59:53.289Z,4.53
2023-02-05T05:02:57.720Z,4.40
2023-02-05T05:06:07.811Z,4.53
2023-02-05T05:09:11.452Z,4.90
2023-02-05T05:12:15.204Z,4.67
2023-02-05T05:15:18.898Z,4.70
2023-02-05T05:18:22.595Z,4.90
2023-02-05T05:21:27.625Z,4.70
2023-02-05T05:24:31.420Z,4.60
2023-02-05T05:27:35.014Z,4.70
2023-02-05T05:30:40.626Z,4.83
2023-02-05T05:33:47.181Z,4.40
2023-02-05T05:36:53.526Z,4.70
2023-02-05T05:40:14.286Z,4.60
2023-02-05T05:43:38.037Z,4.67
2023-02-05T05:46:41.632Z,4.87
2023-02-05T05:49:45.423Z,4.87
2023-02-05T05:52:50.410Z,5.30
2023-02-05T05:55:54.079Z,4.57
2023-02-05T05:58:57.652Z,4.83
2023-02-05T06:02:03.123Z,4.40
2023-02-05T06:05:07.260Z,4.70
2023-02-05T06:08:12.729Z,4.43
2023-02-05T06:11:16.621Z,5.07
2023-02-05T06:14:20.362Z,5.03
2023-02-05T06:17:24.347Z,4.97
2023-02-05T06:20:28.232Z,4.93
2023-02-05T06:23:33.568Z,5.60
2023-02-05T06:26:40.212Z,5.50
2023-02-05T06:29:43.890Z,5.23
2023-02-05T06:32:47.619Z,6.53
2023-02-05T06:35:51.240Z,4.93
2023-02-05T06:38:56.266Z,5.70
2023-02-05T06:42:00.179Z,5.47
2023-02-05T06:45:04.096Z,5.43
2023-02-05T06:48:07.934Z,5.60
2023-02-05T06:51:11.518Z,5.30
2023-02-05T06:54:16.600Z,6.20
2023-02-05T06:57:20.247Z,5.60
2023-02-05T07:00:24.139Z,6.27
2023-02-05T07:03:27.796Z,5.83
2023-02-05T07:06:31.373Z,5.93
2023-02-05T07:09:36.377Z,6.47
2023-02-05T07:12:39.955Z,5.63
2023-02-05T07:15:49.844Z,6.70
2023-02-05T07:18:54.845Z,6.23
2023-02-05T07:21:58.545Z,6.13
2023-02-05T07:25:04.753Z,6.67
2023-02-05T07:28:09.983Z,6.93
2023-02-05T07:31:17.263Z,6.40
2023-02-05T07:34:21.158Z,6.40
2023-02-05T07:37:24.780Z,6.07
2023-02-05T07:40:29.813Z,6.70
2023-02-05T07:43:33.543Z,7.10
2023-02-05T07:46:37.330Z,7.03
2023-02-05T07:49:41.160Z,6.77
2023-02-05T07:52:44.923Z,6.83
2023-02-05T07:55:50.594Z,6.70
2023-02-05T07:58:54.292Z,6.70
2023-02-05T08:01:57.894Z,6.60
2023-02-05T08:05:01.465Z,6.40
2023-02-05T08:08:06.200Z,6.97
2023-02-05T08:11:16.174Z,6.30
2023-02-05T08:14:31.271Z,6.12
2023-02-05T08:17:34.953Z,6.67
2023-02-05T08:20:38.640Z,6.77
2023-02-05T08:23:42.217Z,7.13
2023-02-05T08:26:47.396Z,6.27
2023-02-05T08:29:51.011Z,6.97
2023-02-05T08:32:54.784Z,6.97
2023-02-05T08:35:59.804Z,7.10
2023-02-05T08:39:03.570Z,7.33
2023-02-05T08:42:08.816Z,7.10
2023-02-05T08:45:12.531Z,7.13
2023-02-05T08:48:16.532Z,6.97
2023-02-05T08:51:23.018Z,6.33
2023-02-05T08:54:27.181Z,7.33
2023-02-05T08:57:32.424Z,6.50
2023-02-05T09:00:38.048Z,6.77
2023-02-05T09:03:42.162Z,6.70
2023-02-05T09:06:46.570Z,6.60
2023-02-05T09:09:52.248Z,6.93
2023-02-05T09:12:57.261Z,6.70
2023-02-05T09:16:01.274Z,6.87
2023-02-05T09:19:07.787Z,7.33
2023-02-05T09:22:11.956Z,7.30
2023-02-05T09:25:15.751Z,8.30
2023-02-05T09:28:20.859Z,6.70
2023-02-05T09:31:24.646Z,6.13
2023-02-05T09:34:28.555Z,6.50
2023-02-05T09:37:32.191Z,6.50
2023-02-05T09:40:44.411Z,6.63
2023-02-05T09:43:58.668Z,6.63
2023-02-05T09:47:12.161Z,6.50
2023-02-05T09:50:26.146Z,7.97
2023-02-05T09:53:38.217Z,7.00
2023-02-05T09:56:43.580Z,6.63
2023-02-05T09:59:49.473Z,6.13
2023-02-05T10:03:02.844Z,6.37
2023-02-05T10:06:34.563Z,6.40
2023-02-05T10:10:01.094Z,6.60
2023-02-05T10:13:37.057Z,6.37
2023-02-05T10:17:08.668Z,6.80
2023-02-05T10:20:31.519Z,7.13
2023-02-05T10:23:59.577Z,6.47
2023-02-05T10:27:17.344Z,6.17
2023-02-05T10:30:30.625Z,6.00
2023-02-05T10:33:50.092Z,6.37
2023-02-05T10:36:55.578Z,6.67
2023-02-05T10:40:00.978Z,6.70
2023-02-05T10:43:23.061Z,6.53
2023-02-05T10:46:34.980Z,6.67
2023-02-05T10:49:51.857Z,6.50
2023-02-05T10:52:55.752Z,6.47
2023-02-05T10:56:02.963Z,6.77
2023-02-05T10:59:07.455Z,7.40
2023-02-05T11:02:12.298Z,7.30
2023-02-05T11:05:26.118Z,6.77
2023-02-05T11:08:36.437Z,7.80
2023-02-05T11:11:41.432Z,7.20
2023-02-05T11:14:49.403Z,7.03
2023-02-05T11:17:57.877Z,7.23
2023-02-05T11:21:08.720Z,6.70
2023-02-05T11:24:31.739Z,6.97
2023-02-05T11:27:38.704Z,7.47
2023-02-05T11:30:50.831Z,6.60
2023-02-05T11:34:16.112Z,7.17
2023-02-05T11:37:21.445Z,7.70
2023-02-05T11:40:30.938Z,7.13
2023-02-05T11:43:39.188Z,8.60
2023-02-05T11:46:47.389Z,8.63
2023-02-05T11:49:52.799Z,7.87
2023-02-05T11:53:14.774Z,8.40
2023-02-05T11:56:25.547Z,8.83
2023-02-05T11:59:29.629Z,8.87
2023-02-05T12:02:36.731Z,10.23
2023-02-05T12:05:47.910Z,10.67
2023-02-05T12:08:55.049Z,10.57
2023-02-05T12:12:11.811Z,10.00
2023-02-05T12:15:25.145Z,10.47
2023-02-05T12:18:49.368Z,10.63
2023-02-05T12:22:03.503Z,16.97
2023-02-05T12:25:20.906Z,33.80
2023-02-05T12:28:45.485Z,11.73
2023-02-05T12:32:12.933Z,11.57
2023-02-05T12:35:35.634Z,12.17
2023-02-05T12:39:03.795Z,11.30
2023-02-05T12:42:23.426Z,11.57
2023-02-05T12:45:49.128Z,11.23
2023-02-05T12:49:17.808Z,12.43
2023-02-05T12:52:40.596Z,12.37
2023-02-05T12:56:11.381Z,13.00
2023-02-05T12:59:24.526Z,12.00
2023-02-05T13:02:37.985Z,11.47
2023-02-05T13:05:47.450Z,12.73
2023-02-05T13:08:57.172Z,12.30
2023-02-05T13:12:09.782Z,13.73
2023-02-05T13:15:22.152Z,13.50
2023-02-05T13:18:31.358Z,11.87
2023-02-05T13:21:52.649Z,12.73
2023-02-05T13:25:24.778Z,12.20
2023-02-05T13:28:41.499Z,12.17
2023-02-05T13:31:51.261Z,13.30
2023-02-05T13:34:56.738Z,13.57
2023-02-05T13:38:32.323Z,38.27
2023-02-05T13:42:06.275Z,15.80
2023-02-05T13:45:53.768Z,16.80
2023-02-05T13:49:38.292Z,14.90
2023-02-05T13:53:19.014Z,14.23
2023-02-05T13:56:49.638Z,15.97
2023-02-05T13:59:55.261Z,15.37
2023-02-05T14:03:05.799Z,15.77
2023-02-05T14:06:30.376Z,14.93
2023-02-05T14:09:42.567Z,15.30
2023-02-05T14:12:46.238Z,15.30
2023-02-05T14:15:50.923Z,15.40
2023-02-05T14:19:21.876Z,15.10
2023-02-05T14:22:42.317Z,16.13
2023-02-05T14:26:11.915Z,15.50
2023-02-05T14:29:42.170Z,15.83
2023-02-05T14:33:02.565Z,15.30
2023-02-05T14:36:44.648Z,16.20
2023-02-05T14:39:49.716Z,16.90
2023-02-05T14:43:09.554Z,15.97
2023-02-05T14:46:29.966Z,17.50
2023-02-05T14:49:42.950Z,17.10
2023-02-05T14:52:53.688Z,15.93
2023-02-05T14:56:00.136Z,17.13
2023-02-05T14:59:19.097Z,15.57
2023-02-05T15:03:26.693Z,17.00
2023-02-05T15:06:38.961Z,16.10
2023-02-05T15:09:52.337Z,16.23
2023-02-05T15:13:05.360Z,15.43
2023-02-05T15:16:23.504Z,15.70
2023-02-05T15:19:27.327Z,14.53
2023-02-05T15:22:38.553Z,14.90
2023-02-05T15:25:48.412Z,14.50
2023-02-05T15:29:03.502Z,15.17
2023-02-05T15:32:19.805Z,15.97
2023-02-05T15:35:27.362Z,15.17
2023-02-05T15:38:42.254Z,15.83
2023-02-05T15:41:48.168Z,17.00
2023-02-05T15:44:53.888Z,16.60
2023-02-05T15:48:03.222Z,15.90
2023-02-05T15:51:20.110Z,15.53
2023-02-05T15:54:25.946Z,15.57
2023-02-05T15:57:33.157Z,15.47
2023-02-05T16:00:41.876Z,15.10
2023-02-05T16:03:45.558Z,14.93
2023-02-05T16:06:50.219Z,17.03
2023-02-05T16:09:58.773Z,16.37
2023-02-05T16:13:05.874Z,16.57
2023-02-05T16:16:24.243Z,16.47
2023-02-05T16:19:36.232Z,16.27
2023-02-05T16:22:45.497Z,18.57
2023-02-05T16:25:54.947Z,17.00
2023-02-05T16:29:06.014Z,17.07
2023-02-05T16:32:27.686Z,18.60
2023-02-05T16:35:39.137Z,18.93
2023-02-05T16:38:43.132Z,17.97
2023-02-05T16:41:57.687Z,17.73
2023-02-05T16:45:22.969Z,19.50
2023-02-05T16:48:32.221Z,18.47
2023-02-05T16:51:52.607Z,19.50
2023-02-05T16:54:56.673Z,18.30
2023-02-05T16:58:07.028Z,19.33
2023-02-05T17:01:11.630Z,19.30
2023-02-05T17:04:27.690Z,19.40
2023-02-05T17:07:32.849Z,20.03
2023-02-05T17:10:51.629Z,18.93
2023-02-05T17:14:31.397Z,20.17
2023-02-05T17:17:49.699Z,21.47
2023-02-05T17:21:24.355Z,18.53
2023-02-05T17:24:28.209Z,18.30
2023-02-05T17:27:37.163Z,18.03
2023-02-05T17:30:43.350Z,18.00
2023-02-05T17:33:52.278Z,18.73
2023-02-05T17:36:57.350Z,18.43
2023-02-05T17:40:00.917Z,18.70
2023-02-05T17:43:04.810Z,17.57
2023-02-05T17:46:13.958Z,17.73
2023-02-05T17:49:18.647Z,16.93
2023-02-05T17:52:23.965Z,20.93
2023-02-05T17:55:33.980Z,22.70
2023-02-05T17:58:37.597Z,25.60
2023-02-05T18:01:41.329Z,24.13
2023-02-05T18:04:46.092Z,21.43
2023-02-05T18:07:54.364Z,18.50
2023-02-05T18:10:58.174Z,18.80
2023-02-05T18:14:02.106Z,18.27
2023-02-05T18:17:06.059Z,17.40
2023-02-05T18:20:13.897Z,18.63
2023-02-05T18:23:28.808Z,18.37
2023-02-05T18:26:33.891Z,18.37
2023-02-05T18:29:38.081Z,19.10
2023-02-05T18:32:41.855Z,16.87
2023-02-05T18:35:45.493Z,17.50
2023-02-05T18:38:50.697Z,18.27
2023-02-05T18:41:54.436Z,18.17
2023-02-05T18:44:57.967Z,19.27
2023-02-05T18:48:03.854Z,20.23
2023-02-05T18:51:09.613Z,22.93
2023-02-05T18:54:14.785Z,25.77
2023-02-05T18:57:19.337Z,26.07
2023-02-05T19:00:23.023Z,30.07
2023-02-05T19:03:27.138Z,31.20
2023-02-05T19:06:31.233Z,28.77
2023-02-05T19:09:36.711Z,26.60
2023-02-05T19:12:40.289Z,24.50
2023-02-05T19:15:43.981Z,21.67
2023-02-05T19:18:48.706Z,21.63
2023-02-05T19:21:53.741Z,22.50
2023-02-05T19:24:59.022Z,21.50
2023-02-05T19:28:02.791Z,22.07
2023-02-05T19:31:09.914Z,20.23
2023-02-05T19:34:15.009Z,19.30
2023-02-05T19:37:18.918Z,17.90
2023-02-05T19:40:23.969Z,20.17
2023-02-05T19:43:27.683Z,18.97
2023-02-05T19:46:35.067Z,18.50
2023-02-05T19:49:38.777Z,17.40
2023-02-05T19:52:43.798Z,18.07
2023-02-05T19:55:48.848Z,20.17
2023-02-05T19:58:55.522Z,21.20
2023-02-05T20:01:59.553Z,24.73
2023-02-05T20:05:03.234Z,24.93
2023-02-05T20:08:07.098Z,25.13
2023-02-05T20:11:13.739Z,26.57
2023-02-05T20:14:18.435Z,23.57
2023-02-05T20:17:22.169Z,23.23
2023-02-05T20:20:33.486Z,22.20
2023-02-05T20:23:38.583Z,20.73
2023-02-05T20:26:44.729Z,21.70
2023-02-05T20:30:17.376Z,19.13
2023-02-05T20:33:20.936Z,29.53
2023-02-05T20:36:24.633Z,26.83
2023-02-05T20:39:30.451Z,26.00
2023-02-05T20:42:35.404Z,25.63
2023-02-05T20:45:38.998Z,25.30
2023-02-05T20:48:42.806Z,23.93
2023-02-05T20:51:46.432Z,20.83
2023-02-05T20:54:50.195Z,19.53
2023-02-05T20:57:55.228Z,20.80
2023-02-05T21:01:08.015Z,19.77
2023-02-05T21:04:12.872Z,18.83
2023-02-05T21:07:16.625Z,17.60
2023-02-05T21:10:22.305Z,18.27
2023-02-05T21:13:28.274Z,23.40
2023-02-05T21:16:33.839Z,28.40
2023-02-05T21:19:37.430Z,22.03
2023-02-05T21:22:41.083Z,18.87
2023-02-05T21:25:45.467Z,17.20
2023-02-05T21:28:55.238Z,16.67
2023-02-05T21:31:58.866Z,18.90
2023-02-05T21:35:02.615Z,19.10
2023-02-05T21:38:06.250Z,20.10
2023-02-05T21:41:12.354Z,17.67
2023-02-05T21:44:17.780Z,17.23
2023-02-05T21:47:21.484Z,16.50
2023-02-05T21:50:25.240Z,15.83
2023-02-05T21:53:29.451Z,15.37
2023-02-05T21:56:36.598Z,13.50
2023-02-05T21:59:41.639Z,13.93
2023-02-05T22:02:45.378Z,13.27
2023-02-05T22:05:49.079Z,13.33
2023-02-05T22:08:53.344Z,13.80
2023-02-05T22:12:03.537Z,13.37
2023-02-05T22:15:09.548Z,11.67
2023-02-05T22:18:13.214Z,11.63
2023-02-05T22:21:20.339Z,11.87
2023-02-05T22:24:24.059Z,10.83
2023-02-05T22:27:28.146Z,10.83
2023-02-05T22:30:33.249Z,10.67
2023-02-05T22:33:39.614Z,11.60
2023-02-05T22:36:43.493Z,11.10
2023-02-05T22:39:47.292Z,10.63
2023-02-05T22:42:50.932Z,11.37
2023-02-05T22:45:55.988Z,17.43
2023-02-05T22:49:02.337Z,16.57
2023-02-05T22:52:06.015Z,10.87
2023-02-05T22:55:09.992Z,17.20
2023-02-05T22:58:13.613Z,13.47
2023-02-05T23:01:21.927Z,11.57
2023-02-05T23:04:25.552Z,11.50
2023-02-05T23:07:29.302Z,10.27
2023-02-05T23:10:32.909Z,10.23
2023-02-05T23:13:37.137Z,9.10
2023-02-05T23:16:45.478Z,10.10
2023-02-05T23:19:52.862Z,10.17
2023-02-05T23:22:57.451Z,11.30
2023-02-05T23:26:08.336Z,10.07
2023-02-05T23:29:15.227Z,10.80
2023-02-05T23:32:20.474Z,11.00
2023-02-05T23:35:24.240Z,9.60
2023-02-05T23:38:28.218Z,11.17
2023-02-05T23:41:40.063Z,9.10
2023-02-05T23:44:43.958Z,11.70
2023-02-05T23:47:49.066Z,10.33
2023-02-05T23:50:53.849Z,10.10
2023-02-05T23:53:57.476Z,8.87
2023-02-05T23:57:01.419Z,8.83
